Time;durP1;ratioP1;P1;durP2;ratioP2;P2;SDS_P1;SDS_P2;PMS_P1;PMS_P2;Temp;Humidity;BMP_temperature;BMP_pressure;BME280_temperature;BME280_humidity;BME280_pressure;Samples;Min_cycle;Max_cycle;Signal;HPM_P1;HPM_P2
2021/08/02 00:01:19;;;;;;;23.60;13.87;;;;;14.50;100813.00;;;;10323219;28;20706;-78
2021/08/02 00:06:23;;;;;;;21.20;14.80;;;;;14.60;100815.00;;;;10334957;28;20185;-78
2021/08/02 00:11:33;;;;;;;21.43;14.43;;;;;14.70;100809.00;;;;10335019;28;20199;-79
2021/08/02 00:16:37;;;;;;;26.07;14.50;;;;;14.70;100815.00;;;;10353440;28;20211;-79
2021/08/02 00:21:41;;;;;;;23.77;13.60;;;;;14.70;100808.00;;;;10336368;28;20192;-78
2021/08/02 00:26:43;;;;;;;27.37;13.93;;;;;14.80;100816.00;;;;10350751;28;20192;-78
2021/08/02 00:31:45;;;;;;;25.53;14.33;;;;;14.80;100806.00;;;;10312948;28;20192;-78
2021/08/02 00:36:58;;;;;;;25.60;14.10;;;;;14.80;100811.00;;;;10367817;28;20215;-78
2021/08/02 00:42:43;;;;;;;21.90;14.20;;;;;14.80;100816.00;;;;10355056;28;20222;-78
2021/08/02 00:47:48;;;;;;;19.80;13.57;;;;;14.70;100808.00;;;;10344548;28;20207;-78
2021/08/02 00:53:01;;;;;;;19.90;14.17;;;;;14.80;100812.00;;;;10332674;28;20191;-78
2021/08/02 00:58:07;;;;;;;24.23;14.33;;;;;14.80;100815.00;;;;10355398;28;20213;-78
2021/08/02 01:03:12;;;;;;;25.50;14.60;;;;;14.90;100816.00;;;;10371696;28;20659;-78
2021/08/02 01:08:30;;;;;;;21.47;14.23;;;;;14.90;100817.00;;;;10345295;28;20670;-78
2021/08/02 01:13:38;;;;;;;20.33;14.03;;;;;14.90;100817.00;;;;10340372;28;20219;-79
2021/08/02 01:18:43;;;;;;;21.03;14.17;;;;;14.90;100813.00;;;;10349021;28;20200;-79
2021/08/02 01:23:48;;;;;;;21.53;14.13;;;;;15.00;100822.00;;;;10361988;28;20210;-78
2021/08/02 01:29:28;;;;;;;22.63;13.13;;;;;15.00;100833.00;;;;10325402;28;20196;-79
2021/08/02 01:34:30;;;;;;;19.87;12.73;;;;;15.00;100835.00;;;;10353747;28;20218;-78
2021/08/02 01:39:34;;;;;;;22.50;13.40;;;;;14.90;100833.00;;;;10350031;28;20208;-80
2021/08/02 01:44:36;;;;;;;18.33;10.00;;;;;14.80;100844.00;;;;10357316;28;20207;-81
2021/08/02 01:49:53;;;;;;;19.33;10.83;;;;;14.60;100847.00;;;;10364668;28;20528;-81
2021/08/02 01:55:12;;;;;;;20.83;9.57;;;;;14.60;100849.00;;;;10357252;28;20644;-79
2021/08/02 02:00:16;;;;;;;14.73;9.13;;;;;14.60;100844.00;;;;10354525;28;20214;-78
2021/08/02 02:05:21;;;;;;;13.37;9.27;;;;;14.50;100835.00;;;;10338721;28;20287;-78
2021/08/02 02:10:31;;;;;;;16.30;8.17;;;;;14.40;100843.00;;;;10364942;28;20192;-78
2021/08/02 02:15:35;;;;;;;11.70;8.37;;;;;14.40;100835.00;;;;10350132;28;20871;-78
2021/08/02 02:20:37;;;;;;;15.07;8.57;;;;;14.40;100825.00;;;;10369878;28;20221;-79
2021/08/02 02:25:41;;;;;;;16.23;7.83;;;;;14.30;100820.00;;;;10332592;28;20206;-78
2021/08/02 02:30:53;;;;;;;14.37;7.60;;;;;14.30;100821.00;;;;10360477;28;20196;-78
2021/08/02 02:35:55;;;;;;;13.77;8.07;;;;;14.30;100821.00;;;;10354741;28;20211;-78
2021/08/02 02:40:59;;;;;;;13.33;7.63;;;;;14.30;100817.00;;;;10348555;28;20204;-78
2021/08/02 02:46:03;;;;;;;23.33;7.33;;;;;14.20;100805.00;;;;10344912;28;20262;-78
2021/08/02 02:51:07;;;;;;;15.47;7.93;;;;;14.20;100816.00;;;;10364499;28;20290;-78
2021/08/02 02:56:11;;;;;;;13.47;7.50;;;;;14.30;100809.00;;;;10355146;28;20191;-78
2021/08/02 03:01:17;;;;;;;10.17;7.20;;;;;14.30;100816.00;;;;10331460;28;20216;-78
2021/08/02 03:06:27;;;;;;;16.33;8.57;;;;;14.30;100818.00;;;;10363504;28;20250;-78
2021/08/02 03:11:30;;;;;;;15.97;8.93;;;;;14.30;100819.00;;;;10337352;28;20203;-78
2021/08/02 03:16:33;;;;;;;14.10;8.97;;;;;14.40;100826.00;;;;10335285;28;20269;-78
2021/08/02 03:21:36;;;;;;;13.77;7.90;;;;;14.40;100822.00;;;;10334176;28;20653;-78
2021/08/02 03:26:44;;;;;;;14.17;9.03;;;;;14.40;100832.00;;;;10363507;28;20199;-78
2021/08/02 03:31:56;;;;;;;18.50;9.50;;;;;14.40;100834.00;;;;10348923;28;20196;-78
2021/08/02 03:36:59;;;;;;;15.13;9.23;;;;;14.40;100838.00;;;;10347544;28;20254;-78
2021/08/02 03:42:03;;;;;;;18.10;9.57;;;;;14.40;100844.00;;;;10346476;28;20209;-78
2021/08/02 03:47:06;;;;;;;15.90;8.97;;;;;14.40;100838.00;;;;10361459;28;20286;-78
2021/08/02 03:52:08;;;;;;;13.00;9.03;;;;;14.40;100850.00;;;;10363098;28;20279;-78
2021/08/02 03:57:11;;;;;;;12.67;8.13;;;;;14.40;100854.00;;;;10377099;28;20195;-78
2021/08/02 04:02:14;;;;;;;17.33;8.87;;;;;14.40;100852.00;;;;10361212;28;20195;-78
2021/08/02 04:07:16;;;;;;;14.50;9.27;;;;;14.40;100855.00;;;;10345041;28;20199;-79
2021/08/02 04:12:18;;;;;;;16.30;9.03;;;;;14.40;100857.00;;;;10330087;28;20524;-78
2021/08/02 04:17:20;;;;;;;13.80;7.40;;;;;14.40;100866.00;;;;10329154;28;20238;-78
2021/08/02 04:22:22;;;;;;;15.47;8.40;;;;;14.40;100869.00;;;;10361579;28;20195;-78
2021/08/02 04:27:24;;;;;;;18.53;9.03;;;;;14.30;100874.00;;;;10345681;28;20712;-78
2021/08/02 04:32:26;;;;;;;16.77;9.53;;;;;14.30;100878.00;;;;10333456;28;20777;-78
2021/08/02 04:37:28;;;;;;;16.17;8.67;;;;;14.30;100875.00;;;;10339950;28;20243;-78
2021/08/02 04:42:34;;;;;;;17.93;9.23;;;;;14.30;100886.00;;;;10346202;28;20206;-78
2021/08/02 04:47:37;;;;;;;17.23;10.10;;;;;14.20;100881.00;;;;10369852;28;20412;-77
2021/08/02 04:52:39;;;;;;;16.47;10.27;;;;;14.30;100897.00;;;;10336543;28;20184;-78
2021/08/02 04:57:41;;;;;;;17.00;10.70;;;;;14.30;100888.00;;;;10353148;28;20212;-78
2021/08/02 05:02:43;;;;;;;11.50;8.30;;;;;14.20;100884.00;;;;10338140;28;20258;-78
2021/08/02 05:07:47;;;;;;;15.17;9.13;;;;;14.10;100884.00;;;;10352712;28;20196;-78
2021/08/02 05:12:52;;;;;;;13.47;8.73;;;;;14.10;100888.00;;;;10352444;28;20201;-78
2021/08/02 05:17:54;;;;;;;17.80;8.93;;;;;14.10;100899.00;;;;10386398;28;20306;-78
2021/08/02 05:22:56;;;;;;;18.03;9.03;;;;;14.10;100899.00;;;;10335860;28;20195;-78
2021/08/02 05:27:59;;;;;;;19.00;9.03;;;;;14.10;100898.00;;;;10351825;28;20188;-78
2021/08/02 05:33:01;;;;;;;14.70;9.13;;;;;14.10;100896.00;;;;10351672;28;20230;-78
2021/08/02 05:38:03;;;;;;;23.47;11.00;;;;;14.10;100909.00;;;;10351446;28;20210;-78
2021/08/02 05:43:05;;;;;;;17.80;10.97;;;;;14.10;100901.00;;;;10335278;28;20187;-78
2021/08/02 05:48:07;;;;;;;17.53;10.90;;;;;14.10;100911.00;;;;10335995;28;20192;-78
2021/08/02 05:53:09;;;;;;;14.43;9.90;;;;;14.20;100912.00;;;;10353419;28;20748;-79
2021/08/02 05:58:11;;;;;;;18.30;9.80;;;;;14.20;100920.00;;;;10350320;28;20227;-79
2021/08/02 06:03:13;;;;;;;16.10;10.43;;;;;14.20;100914.00;;;;10336203;28;20199;-79
2021/08/02 06:08:15;;;;;;;18.37;9.40;;;;;14.20;100921.00;;;;10336758;28;20738;-79
2021/08/02 06:13:17;;;;;;;23.83;10.57;;;;;14.20;100928.00;;;;10321152;28;20195;-78
2021/08/02 06:18:19;;;;;;;17.47;9.90;;;;;14.20;100937.00;;;;10329325;28;20212;-78
2021/08/02 06:23:21;;;;;;;20.00;9.37;;;;;14.20;100945.00;;;;10309062;28;20204;-77
2021/08/02 06:28:23;;;;;;;20.47;9.40;;;;;14.10;100950.00;;;;10354252;28;20805;-77
2021/08/02 06:33:25;;;;;;;15.33;10.00;;;;;14.10;100951.00;;;;10353112;28;20219;-77
2021/08/02 06:38:32;;;;;;;18.83;9.13;;;;;14.10;100951.00;;;;10352639;28;20690;-78
2021/08/02 06:43:34;;;;;;;18.27;10.50;;;;;14.10;100949.00;;;;10359857;28;20199;-79
2021/08/02 06:48:36;;;;;;;16.27;8.30;;;;;14.20;100941.00;;;;10352685;28;20192;-78
2021/08/02 06:53:39;;;;;;;11.93;6.83;;;;;14.30;100949.00;;;;10336009;28;20195;-78
2021/08/02 06:58:40;;;;;;;10.07;7.13;;;;;14.30;100963.00;;;;10358362;28;20303;-77
2021/08/02 07:03:43;;;;;;;15.17;6.77;;;;;14.40;100959.00;;;;10345476;28;20200;-77
2021/08/02 07:08:51;;;;;;;9.33;5.93;;;;;14.50;100959.00;;;;10381499;28;20191;-78
2021/08/02 07:13:54;;;;;;;11.27;5.50;;;;;14.50;100971.00;;;;10313479;28;20203;-78
2021/08/02 07:18:56;;;;;;;10.13;6.07;;;;;14.70;100964.00;;;;10350883;28;20200;-78
2021/08/02 07:23:58;;;;;;;12.13;6.13;;;;;14.80;100966.00;;;;10352798;28;20250;-78
2021/08/02 07:29:03;;;;;;;13.30;7.30;;;;;15.00;100958.00;;;;10348418;28;20192;-77
2021/08/02 07:34:05;;;;;;;8.33;5.33;;;;;15.30;100962.00;;;;10331094;28;20220;-78
2021/08/02 07:39:06;;;;;;;14.77;7.20;;;;;15.50;100958.00;;;;10315538;28;20220;-76
2021/08/02 07:44:08;;;;;;;9.07;5.83;;;;;15.80;100961.00;;;;10328404;28;20211;-77
2021/08/02 07:49:10;;;;;;;10.23;5.23;;;;;15.90;101028.00;;;;10328982;28;20200;-77
2021/08/02 07:54:12;;;;;;;7.00;4.70;;;;;16.00;101054.00;;;;10334566;28;20196;-76
2021/08/02 07:59:14;;;;;;;7.53;4.47;;;;;16.10;101057.00;;;;10320887;28;20214;-77
2021/08/02 08:04:16;;;;;;;5.87;4.10;;;;;15.90;101066.00;;;;10333282;28;20667;-76
2021/08/02 08:09:18;;;;;;;7.10;3.00;;;;;15.80;101074.00;;;;10369007;28;20546;-77
2021/08/02 08:14:20;;;;;;;3.87;3.13;;;;;15.90;101077.00;;;;10321867;28;20559;-76
2021/08/02 08:19:22;;;;;;;4.73;2.97;;;;;16.00;101066.00;;;;10345787;28;20242;-76
2021/08/02 08:24:25;;;;;;;3.70;2.70;;;;;16.10;101062.00;;;;10360490;28;20197;-77
2021/08/02 08:29:27;;;;;;;4.67;2.90;;;;;16.20;101055.00;;;;10362331;28;20242;-77
2021/08/02 08:34:29;;;;;;;3.50;3.07;;;;;16.20;101014.00;;;;10322159;28;20216;-77
2021/08/02 08:39:31;;;;;;;5.83;3.50;;;;;16.30;100985.00;;;;10339787;28;20265;-76
2021/08/02 08:44:34;;;;;;;4.43;4.00;;;;;16.40;100957.00;;;;10391226;28;20602;-77
2021/08/02 08:49:36;;;;;;;5.22;3.65;;;;;16.60;100944.00;;;;10346063;28;20199;-77
2021/08/02 08:54:39;;;;;;;5.65;3.58;;;;;16.60;100939.00;;;;10329680;28;20207;-78
2021/08/02 08:59:49;;;;;;;4.57;3.67;;;;;16.80;100914.00;;;;10356956;28;20199;-76
2021/08/02 09:04:56;;;;;;;7.05;3.97;;;;;17.10;100913.00;;;;10326940;28;20242;-77
2021/08/02 09:09:59;;;;;;;4.88;4.18;;;;;17.30;100924.00;;;;10343745;28;20187;-77
2021/08/02 09:15:06;;;;;;;5.25;4.07;;;;;17.60;100923.00;;;;10329103;28;20192;-77
2021/08/02 09:20:19;;;;;;;6.20;4.30;;;;;18.10;100932.00;;;;10330326;28;20426;-77
2021/08/02 09:25:23;;;;;;;4.45;3.63;;;;;18.40;100946.00;;;;10351615;28;20214;-78
2021/08/02 09:30:27;;;;;;;8.52;4.10;;;;;18.60;100963.00;;;;10343292;28;20215;-77
2021/08/02 09:35:33;;;;;;;4.43;3.78;;;;;18.80;100968.00;;;;10363451;28;20228;-77
2021/08/02 09:40:48;;;;;;;4.10;3.53;;;;;19.10;100969.00;;;;10317975;28;20211;-78
2021/08/02 09:45:54;;;;;;;4.70;3.97;;;;;19.10;100972.00;;;;10325832;28;20727;-78
2021/08/02 09:51:09;;;;;;;6.18;3.70;;;;;19.60;100981.00;;;;10367308;28;20195;-77
2021/08/02 09:56:13;;;;;;;4.88;3.65;;;;;20.00;100982.00;;;;10362268;28;20198;-78
2021/08/02 10:01:20;;;;;;;3.92;3.13;;;;;20.20;100987.00;;;;10369363;28;20754;-78
2021/08/02 10:06:23;;;;;;;6.60;3.00;;;;;20.60;100993.00;;;;10347446;28;20192;-77
2021/08/02 10:11:24;;;;;;;3.78;3.08;;;;;20.80;100991.00;;;;10355011;28;20215;-78
2021/08/02 10:16:28;;;;;;;3.88;2.88;;;;;21.10;100996.00;;;;10366286;28;20202;-77
2021/08/02 10:21:42;;;;;;;4.35;2.80;;;;;21.60;100994.00;;;;10365837;28;20207;-78
2021/08/02 10:27:02;;;;;;;2.95;2.60;;;;;22.30;101009.00;;;;10346751;28;20195;-77
2021/08/02 10:32:04;;;;;;;3.53;2.55;;;;;22.70;101012.00;;;;10351338;28;20234;-78
2021/08/02 10:37:06;;;;;;;3.78;2.63;;;;;22.60;101018.00;;;;10378177;28;20279;-78
2021/08/02 10:42:14;;;;;;;4.13;2.80;;;;;22.50;101020.00;;;;10356946;28;20203;-77
2021/08/02 10:47:41;;;;;;;4.72;2.20;;;;;21.90;101016.00;;;;10351100;28;20203;-79
2021/08/02 10:52:45;;;;;;;4.20;2.20;;;;;21.90;101026.00;;;;10339754;28;20331;-79
2021/08/02 10:58:00;;;;;;;2.45;2.25;;;;;21.40;101012.00;;;;10329790;28;20211;-78
2021/08/02 11:03:05;;;;;;;5.57;2.85;;;;;20.80;101015.00;;;;10380523;28;20203;-78
2021/08/02 11:08:07;;;;;;;5.72;2.58;;;;;21.40;101012.00;;;;10354302;28;20282;-78
2021/08/02 11:13:09;;;;;;;4.90;2.63;;;;;23.00;101012.00;;;;10364102;28;20210;-79
2021/08/02 11:18:11;;;;;;;8.23;2.70;;;;;24.60;101011.00;;;;10347391;28;20276;-79
2021/08/02 11:23:13;;;;;;;3.35;2.55;;;;;23.50;101015.00;;;;10338909;28;20390;-77
2021/08/02 11:28:15;;;;;;;4.60;3.25;;;;;22.20;101027.00;;;;10344003;28;20192;-77
2021/08/02 11:33:17;;;;;;;3.80;3.00;;;;;22.10;101017.00;;;;10345301;28;20231;-78
2021/08/02 11:38:19;;;;;;;4.47;3.30;;;;;23.10;101005.00;;;;10359410;28;20670;-77
2021/08/02 11:43:21;;;;;;;6.30;3.25;;;;;24.30;101009.00;;;;10347430;28;20820;-77
2021/08/02 11:48:24;;;;;;;3.30;2.60;;;;;25.20;101009.00;;;;10312316;28;20610;-77
2021/08/02 11:53:36;;;;;;;4.95;2.63;;;;;25.90;101018.00;;;;10338032;28;20660;-77
2021/08/02 11:58:44;;;;;;;3.40;2.65;;;;;26.10;101014.00;;;;10306311;28;20219;-77
2021/08/02 12:03:47;;;;;;;4.55;2.88;;;;;25.30;101015.00;;;;10353498;28;20222;-77
2021/08/02 12:08:54;;;;;;;6.53;2.45;;;;;25.80;101005.00;;;;10337999;28;20207;-76
2021/08/02 12:13:56;;;;;;;3.13;2.70;;;;;26.90;100998.00;;;;10353104;28;20572;-77
2021/08/02 12:19:10;;;;;;;5.93;3.10;;;;;25.40;101006.00;;;;10327320;28;20646;-77
2021/08/02 12:24:14;;;;;;;7.65;3.08;;;;;24.10;101014.00;;;;10349956;28;20282;-77
2021/08/02 12:29:27;;;;;;;4.55;2.78;;;;;23.50;101007.00;;;;10344476;28;20250;-77
2021/08/02 12:34:29;;;;;;;4.03;2.88;;;;;22.80;101005.00;;;;10317948;28;20734;-77
2021/08/02 12:39:32;;;;;;;5.45;2.95;;;;;22.50;101008.00;;;;10352259;28;20207;-77
2021/08/02 12:44:33;;;;;;;4.55;3.20;;;;;22.40;101002.00;;;;10349012;28;20226;-77
2021/08/02 12:49:35;;;;;;;4.72;3.08;;;;;23.30;100998.00;;;;10339164;28;20267;-77
2021/08/02 12:54:37;;;;;;;4.63;3.30;;;;;23.60;101007.00;;;;10343643;28;21050;-77
2021/08/02 12:59:39;;;;;;;11.68;3.60;;;;;23.10;101013.00;;;;10345092;28;20208;-77
2021/08/02 13:04:41;;;;;;;3.90;2.70;;;;;22.90;101005.00;;;;10343119;28;20195;-79
2021/08/02 13:09:43;;;;;;;5.65;2.80;;;;;23.00;101015.00;;;;10363560;28;20692;-77
2021/08/02 13:14:48;;;;;;;3.58;2.25;;;;;22.80;100997.00;;;;10345543;28;20214;-78
2021/08/02 13:19:50;;;;;;;2.90;2.25;;;;;22.50;101005.00;;;;10346524;28;20211;-77
2021/08/02 13:30:12;;;;;;;4.18;2.60;;;;;23.50;100987.00;;;;10361690;28;20883;-77
2021/08/02 13:35:14;;;;;;;3.45;2.67;;;;;24.20;100983.00;;;;10321052;28;20212;-77
2021/08/02 13:40:16;;;;;;;9.00;2.80;;;;;25.10;100979.00;;;;10325051;28;20224;-77
2021/08/02 13:45:38;;;;;;;3.67;2.30;;;;;25.20;100977.00;;;;10318945;28;20254;-77
2021/08/02 13:50:42;;;;;;;6.55;3.00;;;;;24.00;100976.00;;;;10341074;28;20678;-77
2021/08/02 13:55:44;;;;;;;4.97;3.15;;;;;23.30;100980.00;;;;10333003;28;20214;-77
2021/08/02 14:00:46;;;;;;;4.15;3.08;;;;;22.60;100982.00;;;;10335411;28;20254;-77
2021/08/02 14:05:48;;;;;;;4.35;2.88;;;;;22.50;100977.00;;;;10318608;28;20219;-76
2021/08/02 14:11:01;;;;;;;4.97;2.97;;;;;23.90;100961.00;;;;10301396;28;20172;-76
2021/08/02 14:16:04;;;;;;;4.80;3.15;;;;;25.00;100968.00;;;;10344073;28;20226;-78
2021/08/02 14:21:12;;;;;;;4.38;2.97;;;;;26.60;100948.00;;;;10327150;28;20274;-77
2021/08/02 14:26:16;;;;;;;5.32;2.65;;;;;27.00;100945.00;;;;10342344;28;20199;-77
2021/08/02 14:31:18;;;;;;;4.10;2.90;;;;;26.60;100957.00;;;;10326027;28;20672;-79
2021/08/02 14:36:21;;;;;;;5.75;3.50;;;;;26.10;100958.00;;;;10345733;28;20223;-77
2021/08/02 14:41:42;;;;;;;6.63;3.35;;;;;27.70;100958.00;;;;10360726;28;20258;-78
2021/08/02 14:46:50;;;;;;;2.67;2.22;;;;;29.80;100945.00;;;;10402852;28;20202;-78
2021/08/02 14:51:52;;;;;;;4.05;2.47;;;;;30.00;100937.00;;;;10399931;28;20198;-77
2021/08/02 14:56:54;;;;;;;4.57;2.47;;;;;28.10;100953.00;;;;10333131;28;20659;-77
2021/08/02 15:01:57;;;;;;;4.18;1.90;;;;;25.50;100944.00;;;;10346412;28;20219;-77
2021/08/02 15:07:01;;;;;;;4.95;2.00;;;;;25.60;100932.00;;;;10346296;28;20197;-77
2021/08/02 15:12:04;;;;;;;4.10;1.70;;;;;25.30;100946.00;;;;10318776;28;20198;-77
2021/08/02 15:17:07;;;;;;;4.82;2.17;;;;;23.90;100948.00;;;;10355424;28;20187;-76
2021/08/02 15:22:14;;;;;;;4.28;2.20;;;;;25.60;100942.00;;;;10339395;28;20219;-77
2021/08/02 15:27:19;;;;;;;3.05;1.90;;;;;25.70;100915.00;;;;10354479;28;20199;-77
2021/08/02 15:32:22;;;;;;;3.63;1.92;;;;;27.70;100936.00;;;;10322368;28;20215;-76
2021/08/02 15:37:26;;;;;;;4.47;2.30;;;;;24.80;100948.00;;;;10354539;28;20206;-76
2021/08/02 15:42:28;;;;;;;5.35;2.10;;;;;27.50;100921.00;;;;10322380;28;20226;-76
2021/08/02 15:47:31;;;;;;;4.53;1.80;;;;;30.50;100931.00;;;;10344254;28;20580;-76
2021/08/02 15:53:01;;;;;;;5.95;1.70;;;;;28.40;100938.00;;;;10305626;28;20208;-76
2021/08/02 15:58:07;;;;;;;3.85;1.95;;;;;29.90;100940.00;;;;10354389;28;20204;-77
2021/08/02 16:03:27;;;;;;;5.30;1.77;;;;;26.50;100952.00;;;;10352997;28;20191;-76
2021/08/02 16:08:41;;;;;;;5.32;2.10;;;;;22.90;100949.00;;;;10328815;28;20262;-76
2021/08/02 16:13:46;;;;;;;3.80;1.73;;;;;22.20;100940.00;;;;10349167;28;20258;-77
2021/08/02 16:18:48;;;;;;;4.07;1.60;;;;;21.60;100937.00;;;;10353395;28;20667;-76
2021/08/02 16:23:50;;;;;;;2.63;1.73;;;;;21.60;100923.00;;;;10353235;28;20208;-77
2021/08/02 16:28:52;;;;;;;4.18;2.05;;;;;23.20;100921.00;;;;10352554;28;20250;-76
2021/08/02 16:33:53;;;;;;;5.57;1.85;;;;;21.70;100933.00;;;;10337187;28;20752;-76
2021/08/02 16:38:55;;;;;;;5.28;1.73;;;;;21.20;100910.00;;;;10368283;28;20226;-76
2021/08/02 16:43:59;;;;;;;4.25;1.58;;;;;20.90;100918.00;;;;10335691;28;20211;-77
2021/08/02 16:49:02;;;;;;;2.22;1.73;;;;;20.60;100915.00;;;;10329442;28;20203;-76
2021/08/02 16:54:04;;;;;;;3.97;2.00;;;;;20.50;100917.00;;;;10346700;28;20536;-76
2021/08/02 16:59:05;;;;;;;8.32;1.70;;;;;20.50;100925.00;;;;10351902;28;20591;-76
2021/08/02 17:04:07;;;;;;;6.45;1.75;;;;;20.60;100924.00;;;;10321749;28;20222;-77
2021/08/02 17:09:10;;;;;;;2.10;1.67;;;;;20.70;100926.00;;;;10356983;28;20721;-76
2021/08/02 17:14:12;;;;;;;4.10;1.80;;;;;20.40;100929.00;;;;10331967;28;20207;-76
2021/08/02 17:19:14;;;;;;;2.85;1.60;;;;;20.20;100941.00;;;;10298716;28;20283;-76
2021/08/02 17:24:17;;;;;;;3.83;1.80;;;;;20.10;100930.00;;;;10359519;28;20191;-77
2021/08/02 17:29:19;;;;;;;4.20;1.75;;;;;19.90;100937.00;;;;10295089;28;20226;-76
2021/08/02 17:34:21;;;;;;;3.30;1.38;;;;;19.80;100952.00;;;;10339817;28;20214;-76
2021/08/02 17:39:23;;;;;;;6.28;1.88;;;;;19.80;100947.00;;;;10370593;28;20204;-76
2021/08/02 17:44:25;;;;;;;2.97;1.67;;;;;19.60;100943.00;;;;10334686;28;20574;-76
2021/08/02 17:49:27;;;;;;;5.22;1.92;;;;;19.50;100947.00;;;;10352752;28;20183;-76
2021/08/02 17:54:28;;;;;;;3.55;1.50;;;;;19.40;100947.00;;;;10344044;28;20200;-76
2021/08/02 17:59:30;;;;;;;3.58;1.67;;;;;19.20;100947.00;;;;10356597;28;20214;-76
2021/08/02 18:04:32;;;;;;;2.35;1.83;;;;;18.90;100949.00;;;;10357298;28;20195;-76
2021/08/02 18:09:34;;;;;;;3.15;1.90;;;;;18.70;100946.00;;;;10341923;28;20202;-75
2021/08/02 18:14:38;;;;;;;3.95;1.92;;;;;18.70;100955.00;;;;10324397;28;20203;-76
2021/08/02 18:19:40;;;;;;;2.38;1.60;;;;;18.60;100955.00;;;;10350196;28;20274;-75
2021/08/02 18:24:42;;;;;;;2.15;1.60;;;;;18.50;100964.00;;;;10339118;28;20195;-76
2021/08/02 18:29:43;;;;;;;4.15;1.83;;;;;18.20;100947.00;;;;10349805;28;20195;-75
2021/08/02 18:34:45;;;;;;;4.55;1.90;;;;;18.00;100940.00;;;;10355702;28;20204;-75
2021/08/02 18:39:47;;;;;;;2.42;1.80;;;;;17.80;100950.00;;;;10327117;28;20215;-76
2021/08/02 18:44:49;;;;;;;2.50;1.77;;;;;17.70;100949.00;;;;10339350;28;20218;-76
2021/08/02 18:49:51;;;;;;;3.47;2.13;;;;;17.40;100958.00;;;;10353650;28;20202;-76
2021/08/02 18:54:53;;;;;;;4.40;1.73;;;;;17.10;100963.00;;;;10315596;28;20606;-76
2021/08/02 18:59:55;;;;;;;6.97;2.40;;;;;16.90;100960.00;;;;10341201;28;21001;-76
2021/08/02 19:04:57;;;;;;;2.60;2.00;;;;;16.60;100970.00;;;;10321250;28;20280;-76
2021/08/02 19:10:00;;;;;;;5.00;2.40;;;;;16.40;100969.00;;;;10329905;28;20203;-76
2021/08/02 19:15:02;;;;;;;3.38;2.20;;;;;16.30;100979.00;;;;10338423;28;20191;-76
2021/08/02 19:20:06;;;;;;;4.38;2.28;;;;;16.10;100978.00;;;;10337620;28;20312;-76
2021/08/02 19:25:10;;;;;;;4.57;2.78;;;;;15.90;100992.00;;;;10354601;28;20227;-75
2021/08/02 19:30:14;;;;;;;5.70;2.50;;;;;15.70;100993.00;;;;10337732;28;20548;-76
2021/08/02 19:35:16;;;;;;;5.73;2.43;;;;;15.50;100998.00;;;;10321935;28;20805;-76
2021/08/02 19:40:19;;;;;;;5.10;2.47;;;;;15.40;101000.00;;;;10353172;28;20219;-76
2021/08/02 19:45:21;;;;;;;4.63;2.73;;;;;15.30;101006.00;;;;10354095;28;20212;-76
2021/08/02 19:50:24;;;;;;;5.60;3.10;;;;;15.20;101007.00;;;;10314472;28;20203;-76
2021/08/02 19:55:27;;;;;;;4.03;2.93;;;;;15.20;101017.00;;;;10321756;28;20615;-76
2021/08/02 20:00:31;;;;;;;6.20;2.97;;;;;15.10;101024.00;;;;10329626;28;20223;-76
2021/08/02 20:05:39;;;;;;;4.17;3.07;;;;;15.10;101030.00;;;;10328996;28;20215;-76
2021/08/02 20:10:46;;;;;;;10.57;3.37;;;;;15.00;101029.00;;;;10318242;28;20242;-76
2021/08/02 20:15:50;;;;;;;7.00;3.03;;;;;14.90;101041.00;;;;10336542;28;20228;-76
2021/08/02 20:21:01;;;;;;;6.60;3.83;;;;;14.80;101040.00;;;;10320789;28;20219;-76
2021/08/02 20:26:13;;;;;;;5.27;3.13;;;;;14.70;101042.00;;;;10353710;28;20207;-76
2021/08/02 20:31:16;;;;;;;6.77;3.17;;;;;14.60;101036.00;;;;10344908;28;20188;-78
2021/08/02 20:36:21;;;;;;;5.50;3.90;;;;;14.60;101026.00;;;;10360394;28;20222;-76
2021/08/02 20:41:27;;;;;;;8.87;3.40;;;;;14.70;101030.00;;;;10351533;28;20614;-76
2021/08/02 20:46:33;;;;;;;5.27;3.40;;;;;14.70;101031.00;;;;10319032;28;20567;-76
2021/08/02 20:51:36;;;;;;;5.43;3.70;;;;;14.80;101032.00;;;;10319473;28;20198;-76
2021/08/02 20:56:41;;;;;;;6.07;3.70;;;;;14.80;101038.00;;;;10369354;28;20697;-76
2021/08/02 21:02:01;;;;;;;5.83;3.67;;;;;14.90;101034.00;;;;10335435;28;20732;-76
2021/08/02 21:07:29;;;;;;;5.87;4.50;;;;;14.90;101025.00;;;;10367189;28;20200;-76
2021/08/02 21:12:56;;;;;;;7.37;4.07;;;;;14.90;101021.00;;;;10351900;28;20192;-76
2021/08/02 21:17:59;;;;;;;6.30;4.40;;;;;15.00;101012.00;;;;10339505;28;20202;-76
2021/08/02 21:23:03;;;;;;;6.27;3.40;;;;;15.00;101018.00;;;;10354383;28;20222;-76
2021/08/02 21:28:05;;;;;;;5.83;3.63;;;;;14.90;101018.00;;;;10334971;28;20202;-76
2021/08/02 21:33:08;;;;;;;5.80;4.07;;;;;14.90;101015.00;;;;10342550;28;20262;-76
2021/08/02 21:38:09;;;;;;;6.33;4.00;;;;;14.90;100997.00;;;;10342664;28;20680;-75
2021/08/02 21:43:11;;;;;;;7.90;3.60;;;;;14.90;100989.00;;;;10342324;28;20215;-76
2021/08/02 21:48:13;;;;;;;5.03;4.13;;;;;14.90;100996.00;;;;10357701;28;20239;-77
2021/08/02 21:53:15;;;;;;;6.93;3.70;;;;;14.90;100990.00;;;;10341572;28;20650;-76
2021/08/02 21:58:22;;;;;;;6.27;4.10;;;;;14.80;100982.00;;;;10366830;28;20223;-77
2021/08/02 22:03:23;;;;;;;6.27;3.63;;;;;14.80;100979.00;;;;10323058;28;20215;-77
2021/08/02 22:08:25;;;;;;;9.23;4.07;;;;;14.80;100977.00;;;;10332447;28;20709;-76
2021/08/02 22:13:28;;;;;;;4.47;3.80;;;;;14.80;100980.00;;;;10301491;28;20599;-77
2021/08/02 22:18:30;;;;;;;8.50;4.13;;;;;14.80;100981.00;;;;10336807;28;20697;-76
2021/08/02 22:23:32;;;;;;;4.83;3.50;;;;;14.80;100978.00;;;;10303008;28;20253;-77
2021/08/02 22:28:34;;;;;;;5.53;3.23;;;;;14.80;100975.00;;;;10320799;28;20192;-76
2021/08/02 22:33:36;;;;;;;6.20;4.10;;;;;14.90;100974.00;;;;10317065;28;20787;-77
2021/08/02 22:38:40;;;;;;;5.33;3.10;;;;;14.90;100973.00;;;;10343762;28;20250;-76
2021/08/02 22:43:42;;;;;;;4.43;3.17;;;;;14.80;100974.00;;;;10377686;28;20298;-76
2021/08/02 22:48:46;;;;;;;6.57;3.00;;;;;14.80;100974.00;;;;10327643;28;20191;-76
2021/08/02 22:53:48;;;;;;;5.67;2.47;;;;;14.80;100976.00;;;;10338548;28;20652;-76
2021/08/02 22:58:50;;;;;;;4.77;2.57;;;;;14.80;100979.00;;;;10350129;28;20199;-76
2021/08/02 23:03:53;;;;;;;7.90;2.90;;;;;14.70;100973.00;;;;10359766;28;20231;-76
2021/08/02 23:08:55;;;;;;;3.67;3.00;;;;;14.60;100966.00;;;;10342997;28;20594;-77
2021/08/02 23:14:00;;;;;;;5.93;3.00;;;;;14.60;100967.00;;;;10327371;28;20196;-76
2021/08/02 23:19:03;;;;;;;3.07;2.77;;;;;14.60;100965.00;;;;10358975;28;20188;-76
2021/08/02 23:24:06;;;;;;;6.30;2.83;;;;;14.60;100962.00;;;;10358475;28;20666;-77
2021/08/02 23:29:08;;;;;;;8.07;3.00;;;;;14.60;100961.00;;;;10342100;28;20195;-77
2021/08/02 23:34:11;;;;;;;4.20;2.67;;;;;14.60;100953.00;;;;10341888;28;20223;-76
2021/08/02 23:39:14;;;;;;;5.50;2.80;;;;;14.60;100948.00;;;;10358507;28;20191;-77
2021/08/02 23:44:16;;;;;;;3.93;2.83;;;;;14.70;100953.00;;;;10325670;28;20223;-76
2021/08/02 23:49:20;;;;;;;6.97;2.70;;;;;14.60;100950.00;;;;10357210;28;20188;-76
2021/08/02 23:54:24;;;;;;;6.33;3.00;;;;;14.50;100955.00;;;;10341371;28;20199;-76
2021/08/02 23:59:26;;;;;;;3.40;3.10;;;;;14.50;100941.00;;;;10341264;28;20262;-76
